Historyczne dane pomiarowe

Dodano dane terminowe – wersja testowa.

Dane z okresu 1951-2018

Wersja bazy: 1.27 [2018-11-28, lista zmian], aktualizacja planowana na 2018-12-07

Dane meteo z obszaru Polski uzyskane na podstawie danych udostępnionych przez Instytut Meteorologii i Gospodarki Wodnej – Państwowy Instytut Badawczy.

 

Wybierz Datę:    

       

TemperaturaWilgotnośćWiatrCiśnienieOpadyŚniegCzas trwania zjawisk
 Stacja t tx tn tng RH VA  wxwx mslp ppp RRR   cm mm wxwxwxwxwxwxwx
1978-11-08 5.0 7.5 2.6- 87.8- 5.7 2.0---- 0.0------------
1978-11-09 1.8 4.1 0.3- 87.5- 8.0 3.0---- 0.0------------
1978-11-10 2.6 6.4 1.2- 87.8- 8.0 2.3---- 0.0------------
1978-11-11 1.0 3.9 -1.9- 87.8- 0.0 1.0---- 0.0------------
1978-11-12 -1.2 0.5 -2.4- 93.0- 8.0 1.3---- 0.0------------
1978-11-13 -1.4 3.7 -5.0- 85.0- 0.0 2.3---- 0.0------------
1978-11-14 -0.1 3.6 -2.8- 89.8- 5.3 2.7---- 0.0------------
1978-11-15 0.2 3.1 -0.6- 83.8- 5.0 3.7---- 0.0------------
1978-11-16 1.6 6.5 -0.6- 88.5- 3.0 2.3---- 0.0------------
1978-11-17 3.0 7.5 1.0- 88.8- 0.3 2.0---- 0.0------------
1978-11-18 1.7 3.6 0.4- 85.8- 4.0 6.3---- 0.0------------
1978-11-19 1.8 4.1 0.4- 81.0- 4.0 4.0---- 0.0------------
1978-11-20 2.0 5.2 0.6- 78.8- 0.0 4.3---- 0.0------------
1978-11-21 2.9 7.0 0.7- 90.5- 2.7 2.0---- 0.0------------
1978-11-22 1.6 3.3 0.5- 92.0- 6.7 5.7---- 0.0------------
1978-11-23 3.0 4.3 1.6- 89.8- 8.0 6.7---- 0.0------------
1978-11-24 3.4 5.0 3.0- 88.5- 5.3 7.3---- 0.0------------
1978-11-25 4.1 8.0 2.5- 84.3- 1.3 5.0---- 0.0------------
1978-11-26 1.2 4.5 -0.4- 89.5- 5.3 2.3---- 0.0------------
1978-11-27 -0.8 2.1 -2.9- 88.0- 7.7 1.0---- 0.6------------
1978-11-28 0.7 2.6 0.3- 90.3- 8.0 2.3---- 6.0------------
1978-11-29 -1.2 1.3 -4.2- 91.3- 6.3 2.0---- 0.0-- 9---------
1978-11-30 -0.2 1.3 -4.9- 92.8- 8.0 3.0---- 5.4-- 5---------
1978-12-01 1.5 2.3 1.1- 89.0- 8.0 3.0---- 4.0-- 3---------
1978-12-02 0.2 2.1 -0.6- 93.5- 8.0 1.0---- 2.4-- 3---------
1978-12-03 -2.7 -0.4 -4.5- 87.8- 8.0 1.3---- 0.0------------
1978-12-04 -9.7 -4.5-11.5- 75.8- 4.7 2.7---- 0.1------------
1978-12-05-11.8 -8.0-15.0- 85.5- 5.3 2.0---- 0.0------------
1978-12-06-11.0 -8.0-17.9- 79.3- 8.0 2.0---- 1.0------------
1978-12-07-15.4 -9.0-20.6- 76.5- 3.7 1.0---- 0.0-- 3---------
155.7 ms

 

Źródłem pochodzenia danych jest Instytut Meteorologii i Gospodarki Wodnej – Państwowy Instytut Badawczy. Dane Instytutu Meteorologii i Gospodarki Wodnej – Państwowego Instytutu Badawczego zostały przetworzone.

Dane źródłowe można odnaleźć na stronie https://dane.imgw.pl